sensor_id;sensor_type;location;lat;lon;timestamp;P1;durP1;ratioP1;P2;durP2;ratioP2
12165;SDS011;6146;48.128;11.476;2023-07-31T00:01:20;3.80;;;2.50;;
12165;SDS011;6146;48.128;11.476;2023-07-31T00:03:46;5.00;;;2.27;;
12165;SDS011;6146;48.128;11.476;2023-07-31T00:06:12;2.73;;;2.30;;
12165;SDS011;6146;48.128;11.476;2023-07-31T00:08:37;3.93;;;2.30;;
12165;SDS011;6146;48.128;11.476;2023-07-31T00:11:03;4.33;;;2.17;;
12165;SDS011;6146;48.128;11.476;2023-07-31T00:13:28;4.10;;;2.30;;
12165;SDS011;6146;48.128;11.476;2023-07-31T00:15:54;3.50;;;2.57;;
12165;SDS011;6146;48.128;11.476;2023-07-31T00:18:20;4.30;;;2.23;;
12165;SDS011;6146;48.128;11.476;2023-07-31T00:20:45;2.40;;;2.20;;
12165;SDS011;6146;48.128;11.476;2023-07-31T00:23:11;3.10;;;2.17;;
12165;SDS011;6146;48.128;11.476;2023-07-31T00:25:36;3.47;;;2.50;;
12165;SDS011;6146;48.128;11.476;2023-07-31T00:28:02;2.40;;;2.20;;
12165;SDS011;6146;48.128;11.476;2023-07-31T00:30:28;2.77;;;2.40;;
12165;SDS011;6146;48.128;11.476;2023-07-31T00:32:53;4.07;;;2.27;;
12165;SDS011;6146;48.128;11.476;2023-07-31T00:35:19;5.23;;;2.67;;
12165;SDS011;6146;48.128;11.476;2023-07-31T00:37:44;3.23;;;2.13;;
12165;SDS011;6146;48.128;11.476;2023-07-31T00:40:10;2.77;;;2.13;;
12165;SDS011;6146;48.128;11.476;2023-07-31T00:42:36;4.97;;;2.40;;
12165;SDS011;6146;48.128;11.476;2023-07-31T00:45:02;3.93;;;2.20;;
12165;SDS011;6146;48.128;11.476;2023-07-31T00:47:27;3.07;;;2.30;;
12165;SDS011;6146;48.128;11.476;2023-07-31T00:49:53;5.67;;;2.43;;
12165;SDS011;6146;48.128;11.476;2023-07-31T00:52:19;2.43;;;2.23;;
12165;SDS011;6146;48.128;11.476;2023-07-31T00:54:45;3.77;;;2.07;;
12165;SDS011;6146;48.128;11.476;2023-07-31T00:57:11;3.20;;;2.27;;
12165;SDS011;6146;48.128;11.476;2023-07-31T00:59:37;2.57;;;2.30;;
12165;SDS011;6146;48.128;11.476;2023-07-31T01:02:02;4.00;;;2.07;;
12165;SDS011;6146;48.128;11.476;2023-07-31T01:04:29;4.23;;;2.20;;
12165;SDS011;6146;48.128;11.476;2023-07-31T01:12:07;5.37;;;2.57;;
12165;SDS011;6146;48.128;11.476;2023-07-31T01:14:34;4.47;;;2.23;;
12165;SDS011;6146;48.128;11.476;2023-07-31T01:17:00;3.40;;;2.40;;
12165;SDS011;6146;48.128;11.476;2023-07-31T01:19:25;4.33;;;2.60;;
12165;SDS011;6146;48.128;11.476;2023-07-31T01:22:27;3.03;;;2.10;;
12165;SDS011;6146;48.128;11.476;2023-07-31T01:27:37;4.77;;;2.17;;
12165;SDS011;6146;48.128;11.476;2023-07-31T01:30:15;3.37;;;2.47;;
12165;SDS011;6146;48.128;11.476;2023-07-31T01:32:44;3.63;;;2.10;;
12165;SDS011;6146;48.128;11.476;2023-07-31T01:35:13;4.57;;;2.37;;
12165;SDS011;6146;48.128;11.476;2023-07-31T01:37:39;3.03;;;2.20;;
12165;SDS011;6146;48.128;11.476;2023-07-31T01:40:05;3.93;;;2.00;;
12165;SDS011;6146;48.128;11.476;2023-07-31T01:42:31;3.13;;;2.07;;
12165;SDS011;6146;48.128;11.476;2023-07-31T01:44:57;4.93;;;2.60;;
12165;SDS011;6146;48.128;11.476;2023-07-31T01:47:22;4.90;;;2.37;;
12165;SDS011;6146;48.128;11.476;2023-07-31T01:49:48;3.63;;;2.40;;
12165;SDS011;6146;48.128;11.476;2023-07-31T01:52:14;4.00;;;2.50;;
12165;SDS011;6146;48.128;11.476;2023-07-31T01:54:40;2.97;;;2.30;;
12165;SDS011;6146;48.128;11.476;2023-07-31T01:57:05;2.93;;;2.27;;
12165;SDS011;6146;48.128;11.476;2023-07-31T01:59:31;4.07;;;2.30;;
12165;SDS011;6146;48.128;11.476;2023-07-31T02:01:57;3.33;;;2.20;;
12165;SDS011;6146;48.128;11.476;2023-07-31T02:04:25;4.07;;;2.50;;
12165;SDS011;6146;48.128;11.476;2023-07-31T02:06:50;3.20;;;2.30;;
12165;SDS011;6146;48.128;11.476;2023-07-31T02:09:17;5.30;;;2.33;;
12165;SDS011;6146;48.128;11.476;2023-07-31T02:11:42;2.70;;;2.10;;
12165;SDS011;6146;48.128;11.476;2023-07-31T02:14:08;4.33;;;2.30;;
12165;SDS011;6146;48.128;11.476;2023-07-31T02:16:34;4.23;;;2.20;;
12165;SDS011;6146;48.128;11.476;2023-07-31T02:18:59;4.30;;;2.47;;
12165;SDS011;6146;48.128;11.476;2023-07-31T02:21:25;2.90;;;2.30;;
12165;SDS011;6146;48.128;11.476;2023-07-31T02:23:50;3.10;;;2.00;;
12165;SDS011;6146;48.128;11.476;2023-07-31T02:26:16;3.33;;;2.20;;
12165;SDS011;6146;48.128;11.476;2023-07-31T02:28:41;2.57;;;2.30;;
12165;SDS011;6146;48.128;11.476;2023-07-31T02:31:08;3.17;;;2.37;;
12165;SDS011;6146;48.128;11.476;2023-07-31T02:33:33;3.03;;;2.37;;
12165;SDS011;6146;48.128;11.476;2023-07-31T02:35:59;2.73;;;2.27;;
12165;SDS011;6146;48.128;11.476;2023-07-31T02:38:24;4.20;;;1.97;;
12165;SDS011;6146;48.128;11.476;2023-07-31T02:40:50;3.40;;;2.13;;
12165;SDS011;6146;48.128;11.476;2023-07-31T02:43:16;3.13;;;2.20;;
12165;SDS011;6146;48.128;11.476;2023-07-31T02:45:41;3.43;;;2.27;;
12165;SDS011;6146;48.128;11.476;2023-07-31T02:48:07;2.90;;;2.30;;
12165;SDS011;6146;48.128;11.476;2023-07-31T02:50:32;3.53;;;2.33;;
12165;SDS011;6146;48.128;11.476;2023-07-31T02:52:58;4.27;;;2.40;;
12165;SDS011;6146;48.128;11.476;2023-07-31T02:55:24;2.80;;;2.43;;
12165;SDS011;6146;48.128;11.476;2023-07-31T02:57:49;3.87;;;2.20;;
12165;SDS011;6146;48.128;11.476;2023-07-31T03:00:17;2.50;;;2.30;;
12165;SDS011;6146;48.128;11.476;2023-07-31T03:02:42;4.87;;;2.57;;
12165;SDS011;6146;48.128;11.476;2023-07-31T03:05:08;2.60;;;2.40;;
12165;SDS011;6146;48.128;11.476;2023-07-31T03:07:33;2.73;;;2.20;;
12165;SDS011;6146;48.128;11.476;2023-07-31T03:09:59;3.00;;;2.70;;
12165;SDS011;6146;48.128;11.476;2023-07-31T03:12:24;3.47;;;2.63;;
12165;SDS011;6146;48.128;11.476;2023-07-31T03:14:50;2.77;;;2.50;;
12165;SDS011;6146;48.128;11.476;2023-07-31T03:17:15;5.77;;;2.50;;
12165;SDS011;6146;48.128;11.476;2023-07-31T03:19:41;4.33;;;2.60;;
12165;SDS011;6146;48.128;11.476;2023-07-31T03:22:06;3.60;;;2.70;;
12165;SDS011;6146;48.128;11.476;2023-07-31T03:24:32;3.23;;;2.43;;
12165;SDS011;6146;48.128;11.476;2023-07-31T03:26:57;3.83;;;2.60;;
12165;SDS011;6146;48.128;11.476;2023-07-31T03:29:23;5.43;;;2.87;;
12165;SDS011;6146;48.128;11.476;2023-07-31T03:31:48;3.17;;;2.40;;
12165;SDS011;6146;48.128;11.476;2023-07-31T03:34:14;3.30;;;2.80;;
12165;SDS011;6146;48.128;11.476;2023-07-31T03:36:39;4.73;;;2.93;;
12165;SDS011;6146;48.128;11.476;2023-07-31T03:39:05;3.23;;;2.70;;
12165;SDS011;6146;48.128;11.476;2023-07-31T03:41:31;3.97;;;3.20;;
12165;SDS011;6146;48.128;11.476;2023-07-31T03:43:56;5.07;;;3.17;;
12165;SDS011;6146;48.128;11.476;2023-07-31T03:46:22;4.53;;;2.87;;
12165;SDS011;6146;48.128;11.476;2023-07-31T03:48:49;3.03;;;2.57;;
12165;SDS011;6146;48.128;11.476;2023-07-31T03:51:15;4.30;;;2.90;;
12165;SDS011;6146;48.128;11.476;2023-07-31T03:53:40;5.67;;;2.73;;
12165;SDS011;6146;48.128;11.476;2023-07-31T03:56:06;4.40;;;2.97;;
12165;SDS011;6146;48.128;11.476;2023-07-31T03:58:31;3.17;;;2.87;;
12165;SDS011;6146;48.128;11.476;2023-07-31T04:00:57;4.53;;;3.03;;
12165;SDS011;6146;48.128;11.476;2023-07-31T04:03:22;4.60;;;2.90;;
12165;SDS011;6146;48.128;11.476;2023-07-31T04:05:48;3.10;;;2.77;;
12165;SDS011;6146;48.128;11.476;2023-07-31T04:08:13;4.60;;;2.70;;
12165;SDS011;6146;48.128;11.476;2023-07-31T04:10:39;4.17;;;2.80;;
12165;SDS011;6146;48.128;11.476;2023-07-31T04:13:04;4.73;;;2.90;;
12165;SDS011;6146;48.128;11.476;2023-07-31T04:15:30;4.17;;;2.80;;
12165;SDS011;6146;48.128;11.476;2023-07-31T04:17:55;4.20;;;3.27;;
12165;SDS011;6146;48.128;11.476;2023-07-31T04:20:21;4.03;;;2.83;;
12165;SDS011;6146;48.128;11.476;2023-07-31T04:22:47;4.37;;;3.43;;
12165;SDS011;6146;48.128;11.476;2023-07-31T04:25:13;4.50;;;3.00;;
12165;SDS011;6146;48.128;11.476;2023-07-31T04:27:39;4.77;;;3.03;;
12165;SDS011;6146;48.128;11.476;2023-07-31T04:30:05;4.23;;;2.73;;
12165;SDS011;6146;48.128;11.476;2023-07-31T04:32:31;5.87;;;3.23;;
12165;SDS011;6146;48.128;11.476;2023-07-31T04:34:56;3.27;;;2.80;;
12165;SDS011;6146;48.128;11.476;2023-07-31T04:37:22;4.70;;;3.13;;
12165;SDS011;6146;48.128;11.476;2023-07-31T04:39:47;3.47;;;2.70;;
12165;SDS011;6146;48.128;11.476;2023-07-31T04:42:13;3.47;;;3.00;;
12165;SDS011;6146;48.128;11.476;2023-07-31T04:44:38;5.77;;;3.40;;
12165;SDS011;6146;48.128;11.476;2023-07-31T04:47:04;4.47;;;2.90;;
12165;SDS011;6146;48.128;11.476;2023-07-31T04:49:31;3.80;;;3.00;;
12165;SDS011;6146;48.128;11.476;2023-07-31T04:51:57;4.53;;;2.80;;
12165;SDS011;6146;48.128;11.476;2023-07-31T04:54:23;4.07;;;3.00;;
12165;SDS011;6146;48.128;11.476;2023-07-31T04:56:48;3.60;;;2.90;;
12165;SDS011;6146;48.128;11.476;2023-07-31T04:59:14;3.40;;;2.90;;
12165;SDS011;6146;48.128;11.476;2023-07-31T05:01:40;4.93;;;2.53;;
12165;SDS011;6146;48.128;11.476;2023-07-31T05:04:05;3.23;;;2.93;;
12165;SDS011;6146;48.128;11.476;2023-07-31T05:06:31;2.90;;;2.70;;
12165;SDS011;6146;48.128;11.476;2023-07-31T05:08:56;3.13;;;2.77;;
12165;SDS011;6146;48.128;11.476;2023-07-31T05:11:22;4.00;;;2.80;;
12165;SDS011;6146;48.128;11.476;2023-07-31T05:13:47;4.20;;;2.83;;
12165;SDS011;6146;48.128;11.476;2023-07-31T05:16:13;3.80;;;2.53;;
12165;SDS011;6146;48.128;11.476;2023-07-31T05:18:38;3.73;;;2.50;;
12165;SDS011;6146;48.128;11.476;2023-07-31T05:21:04;3.27;;;2.10;;
12165;SDS011;6146;48.128;11.476;2023-07-31T05:23:29;3.53;;;2.33;;
12165;SDS011;6146;48.128;11.476;2023-07-31T05:26:02;3.10;;;2.30;;
12165;SDS011;6146;48.128;11.476;2023-07-31T05:28:29;4.27;;;2.37;;
12165;SDS011;6146;48.128;11.476;2023-07-31T05:30:58;3.00;;;2.40;;
12165;SDS011;6146;48.128;11.476;2023-07-31T05:33:25;3.47;;;2.43;;
12165;SDS011;6146;48.128;11.476;2023-07-31T05:35:50;3.00;;;2.33;;
12165;SDS011;6146;48.128;11.476;2023-07-31T05:38:16;3.60;;;2.30;;
12165;SDS011;6146;48.128;11.476;2023-07-31T05:40:42;3.93;;;2.33;;
12165;SDS011;6146;48.128;11.476;2023-07-31T05:43:08;2.60;;;2.10;;
12165;SDS011;6146;48.128;11.476;2023-07-31T05:45:34;2.27;;;2.07;;
12165;SDS011;6146;48.128;11.476;2023-07-31T05:48:00;2.27;;;2.03;;
12165;SDS011;6146;48.128;11.476;2023-07-31T05:50:25;2.33;;;1.90;;
12165;SDS011;6146;48.128;11.476;2023-07-31T05:52:51;2.70;;;1.93;;
12165;SDS011;6146;48.128;11.476;2023-07-31T05:55:17;4.27;;;2.37;;
12165;SDS011;6146;48.128;11.476;2023-07-31T05:57:42;4.77;;;2.17;;
12165;SDS011;6146;48.128;11.476;2023-07-31T06:00:10;3.50;;;2.27;;
12165;SDS011;6146;48.128;11.476;2023-07-31T06:02:37;4.67;;;2.37;;
12165;SDS011;6146;48.128;11.476;2023-07-31T06:05:03;2.70;;;2.30;;
12165;SDS011;6146;48.128;11.476;2023-07-31T06:07:30;2.53;;;1.97;;
12165;SDS011;6146;48.128;11.476;2023-07-31T06:09:59;2.83;;;2.00;;
12165;SDS011;6146;48.128;11.476;2023-07-31T06:12:31;2.47;;;2.17;;
12165;SDS011;6146;48.128;11.476;2023-07-31T06:14:56;3.77;;;2.20;;
12165;SDS011;6146;48.128;11.476;2023-07-31T06:17:22;2.43;;;2.10;;
12165;SDS011;6146;48.128;11.476;2023-07-31T06:19:49;2.67;;;1.87;;
12165;SDS011;6146;48.128;11.476;2023-07-31T06:22:14;2.63;;;1.83;;
12165;SDS011;6146;48.128;11.476;2023-07-31T06:24:40;2.43;;;2.00;;
12165;SDS011;6146;48.128;11.476;2023-07-31T06:27:06;2.57;;;1.90;;
12165;SDS011;6146;48.128;11.476;2023-07-31T06:29:31;2.87;;;2.10;;
12165;SDS011;6146;48.128;11.476;2023-07-31T06:31:57;2.50;;;1.90;;
12165;SDS011;6146;48.128;11.476;2023-07-31T06:34:23;3.13;;;2.27;;
12165;SDS011;6146;48.128;11.476;2023-07-31T06:36:48;2.00;;;1.80;;
12165;SDS011;6146;48.128;11.476;2023-07-31T06:39:14;2.30;;;1.80;;
12165;SDS011;6146;48.128;11.476;2023-07-31T06:41:39;3.40;;;2.20;;
12165;SDS011;6146;48.128;11.476;2023-07-31T06:44:07;2.80;;;1.90;;
12165;SDS011;6146;48.128;11.476;2023-07-31T06:46:33;3.23;;;2.10;;
12165;SDS011;6146;48.128;11.476;2023-07-31T06:48:59;2.93;;;2.00;;
12165;SDS011;6146;48.128;11.476;2023-07-31T06:51:24;2.37;;;2.10;;
12165;SDS011;6146;48.128;11.476;2023-07-31T06:53:50;3.00;;;2.07;;
12165;SDS011;6146;48.128;11.476;2023-07-31T06:56:15;3.73;;;1.53;;
12165;SDS011;6146;48.128;11.476;2023-07-31T06:58:41;2.50;;;1.83;;
12165;SDS011;6146;48.128;11.476;2023-07-31T07:01:06;2.20;;;1.90;;
12165;SDS011;6146;48.128;11.476;2023-07-31T07:03:32;3.50;;;2.13;;
12165;SDS011;6146;48.128;11.476;2023-07-31T07:05:57;2.27;;;1.90;;
12165;SDS011;6146;48.128;11.476;2023-07-31T07:08:23;2.97;;;1.97;;
12165;SDS011;6146;48.128;11.476;2023-07-31T07:10:49;2.83;;;1.93;;
12165;SDS011;6146;48.128;11.476;2023-07-31T07:13:15;2.37;;;1.90;;
12165;SDS011;6146;48.128;11.476;2023-07-31T07:15:41;3.03;;;2.10;;
12165;SDS011;6146;48.128;11.476;2023-07-31T07:18:06;4.17;;;2.10;;
12165;SDS011;6146;48.128;11.476;2023-07-31T07:20:32;4.43;;;2.20;;
12165;SDS011;6146;48.128;11.476;2023-07-31T07:22:57;2.83;;;2.10;;
12165;SDS011;6146;48.128;11.476;2023-07-31T07:25:23;2.50;;;2.00;;
12165;SDS011;6146;48.128;11.476;2023-07-31T07:27:49;5.83;;;2.30;;
12165;SDS011;6146;48.128;11.476;2023-07-31T07:30:14;5.73;;;2.60;;
12165;SDS011;6146;48.128;11.476;2023-07-31T07:32:40;2.17;;;1.93;;
12165;SDS011;6146;48.128;11.476;2023-07-31T07:35:06;2.50;;;1.80;;
12165;SDS011;6146;48.128;11.476;2023-07-31T07:37:32;2.40;;;1.70;;
12165;SDS011;6146;48.128;11.476;2023-07-31T07:39:57;2.53;;;1.63;;
12165;SDS011;6146;48.128;11.476;2023-07-31T07:42:23;3.53;;;1.90;;
12165;SDS011;6146;48.128;11.476;2023-07-31T07:44:48;3.17;;;2.17;;
12165;SDS011;6146;48.128;11.476;2023-07-31T07:47:14;2.60;;;1.90;;
12165;SDS011;6146;48.128;11.476;2023-07-31T07:49:39;4.43;;;2.10;;
12165;SDS011;6146;48.128;11.476;2023-07-31T07:52:05;9.80;;;2.67;;
12165;SDS011;6146;48.128;11.476;2023-07-31T07:54:31;11.97;;;3.40;;
12165;SDS011;6146;48.128;11.476;2023-07-31T07:56:57;4.17;;;2.07;;
12165;SDS011;6146;48.128;11.476;2023-07-31T07:59:22;4.97;;;2.47;;
12165;SDS011;6146;48.128;11.476;2023-07-31T08:01:48;3.17;;;1.80;;
12165;SDS011;6146;48.128;11.476;2023-07-31T08:04:14;12.50;;;3.67;;
12165;SDS011;6146;48.128;11.476;2023-07-31T08:06:39;7.93;;;3.00;;
12165;SDS011;6146;48.128;11.476;2023-07-31T08:09:05;4.97;;;2.30;;
12165;SDS011;6146;48.128;11.476;2023-07-31T08:11:34;3.70;;;1.90;;
12165;SDS011;6146;48.128;11.476;2023-07-31T08:14:00;2.07;;;1.53;;
12165;SDS011;6146;48.128;11.476;2023-07-31T08:16:26;2.45;;;1.70;;
12165;SDS011;6146;48.128;11.476;2023-07-31T08:18:51;2.30;;;1.48;;
12165;SDS011;6146;48.128;11.476;2023-07-31T08:21:17;3.03;;;1.65;;
12165;SDS011;6146;48.128;11.476;2023-07-31T08:23:42;3.15;;;1.60;;
12165;SDS011;6146;48.128;11.476;2023-07-31T08:26:14;2.58;;;1.65;;
12165;SDS011;6146;48.128;11.476;2023-07-31T08:28:40;4.57;;;2.10;;
12165;SDS011;6146;48.128;11.476;2023-07-31T08:31:05;1.67;;;1.50;;
12165;SDS011;6146;48.128;11.476;2023-07-31T08:33:31;2.30;;;1.67;;
12165;SDS011;6146;48.128;11.476;2023-07-31T08:35:56;1.87;;;1.67;;
12165;SDS011;6146;48.128;11.476;2023-07-31T08:38:22;2.77;;;1.80;;
12165;SDS011;6146;48.128;11.476;2023-07-31T08:40:50;2.17;;;1.80;;
12165;SDS011;6146;48.128;11.476;2023-07-31T08:43:16;3.60;;;1.80;;
12165;SDS011;6146;48.128;11.476;2023-07-31T08:45:41;3.27;;;1.70;;
12165;SDS011;6146;48.128;11.476;2023-07-31T08:48:08;3.13;;;2.00;;
12165;SDS011;6146;48.128;11.476;2023-07-31T08:50:33;2.47;;;1.80;;
12165;SDS011;6146;48.128;11.476;2023-07-31T08:52:59;2.93;;;1.90;;
12165;SDS011;6146;48.128;11.476;2023-07-31T08:55:25;2.50;;;1.90;;
12165;SDS011;6146;48.128;11.476;2023-07-31T08:57:52;2.60;;;1.70;;
12165;SDS011;6146;48.128;11.476;2023-07-31T09:00:20;2.83;;;1.80;;
12165;SDS011;6146;48.128;11.476;2023-07-31T09:02:51;3.20;;;2.00;;
12165;SDS011;6146;48.128;11.476;2023-07-31T09:05:37;3.60;;;1.90;;
12165;SDS011;6146;48.128;11.476;2023-07-31T09:08:06;3.07;;;2.00;;
12165;SDS011;6146;48.128;11.476;2023-07-31T09:10:34;3.93;;;1.77;;
12165;SDS011;6146;48.128;11.476;2023-07-31T09:12:59;2.33;;;1.63;;
12165;SDS011;6146;48.128;11.476;2023-07-31T09:15:25;4.77;;;1.83;;
12165;SDS011;6146;48.128;11.476;2023-07-31T09:17:59;2.07;;;1.60;;
12165;SDS011;6146;48.128;11.476;2023-07-31T09:20:26;2.57;;;1.80;;
12165;SDS011;6146;48.128;11.476;2023-07-31T09:22:52;2.60;;;1.63;;
12165;SDS011;6146;48.128;11.476;2023-07-31T09:25:24;3.33;;;1.70;;
12165;SDS011;6146;48.128;11.476;2023-07-31T09:30:25;1.80;;;1.50;;
12165;SDS011;6146;48.128;11.476;2023-07-31T09:32:52;2.78;;;1.65;;
12165;SDS011;6146;48.128;11.476;2023-07-31T09:35:29;2.88;;;2.03;;
12165;SDS011;6146;48.128;11.476;2023-07-31T09:38:06;3.50;;;1.80;;
12165;SDS011;6146;48.128;11.476;2023-07-31T09:40:34;3.08;;;1.98;;
12165;SDS011;6146;48.128;11.476;2023-07-31T09:46:02;2.72;;;1.90;;
12165;SDS011;6146;48.128;11.476;2023-07-31T09:48:28;2.30;;;1.70;;
12165;SDS011;6146;48.128;11.476;2023-07-31T09:50:53;2.25;;;1.58;;
12165;SDS011;6146;48.128;11.476;2023-07-31T09:53:20;1.92;;;1.67;;
12165;SDS011;6146;48.128;11.476;2023-07-31T09:55:54;3.20;;;1.60;;
12165;SDS011;6146;48.128;11.476;2023-07-31T09:58:20;2.75;;;1.70;;
12165;SDS011;6146;48.128;11.476;2023-07-31T10:00:46;2.92;;;1.73;;
12165;SDS011;6146;48.128;11.476;2023-07-31T10:03:12;4.20;;;3.50;;
12165;SDS011;6146;48.128;11.476;2023-07-31T10:05:40;2.63;;;1.60;;
12165;SDS011;6146;48.128;11.476;2023-07-31T10:08:10;2.13;;;1.65;;
12165;SDS011;6146;48.128;11.476;2023-07-31T10:10:41;4.60;;;1.90;;
12165;SDS011;6146;48.128;11.476;2023-07-31T10:13:08;2.40;;;1.63;;
12165;SDS011;6146;48.128;11.476;2023-07-31T10:15:34;2.40;;;1.60;;
12165;SDS011;6146;48.128;11.476;2023-07-31T10:18:00;2.13;;;1.67;;
12165;SDS011;6146;48.128;11.476;2023-07-31T10:20:26;3.33;;;1.83;;
12165;SDS011;6146;48.128;11.476;2023-07-31T10:22:54;1.50;;;1.38;;
12165;SDS011;6146;48.128;11.476;2023-07-31T10:25:20;2.35;;;1.90;;
12165;SDS011;6146;48.128;11.476;2023-07-31T10:27:47;1.75;;;1.50;;
12165;SDS011;6146;48.128;11.476;2023-07-31T10:30:16;2.55;;;1.70;;
12165;SDS011;6146;48.128;11.476;2023-07-31T10:32:43;3.42;;;2.00;;
12165;SDS011;6146;48.128;11.476;2023-07-31T10:35:11;1.85;;;1.52;;
12165;SDS011;6146;48.128;11.476;2023-07-31T10:40:11;3.85;;;2.20;;
12165;SDS011;6146;48.128;11.476;2023-07-31T10:42:47;1.90;;;1.80;;
12165;SDS011;6146;48.128;11.476;2023-07-31T10:45:23;1.98;;;1.73;;
12165;SDS011;6146;48.128;11.476;2023-07-31T10:48:01;2.17;;;1.60;;
12165;SDS011;6146;48.128;11.476;2023-07-31T10:50:28;1.98;;;1.80;;
12165;SDS011;6146;48.128;11.476;2023-07-31T10:52:57;2.00;;;1.67;;
12165;SDS011;6146;48.128;11.476;2023-07-31T11:00:33;2.35;;;1.83;;
12165;SDS011;6146;48.128;11.476;2023-07-31T11:08:33;3.35;;;1.77;;
12165;SDS011;6146;48.128;11.476;2023-07-31T11:13:32;2.65;;;1.90;;
12165;SDS011;6146;48.128;11.476;2023-07-31T11:15:59;3.80;;;2.47;;
12165;SDS011;6146;48.128;11.476;2023-07-31T11:18:26;2.47;;;1.77;;
12165;SDS011;6146;48.128;11.476;2023-07-31T11:20:52;2.65;;;1.90;;
12165;SDS011;6146;48.128;11.476;2023-07-31T11:23:18;2.42;;;1.90;;
12165;SDS011;6146;48.128;11.476;2023-07-31T11:25:45;2.65;;;1.73;;
12165;SDS011;6146;48.128;11.476;2023-07-31T11:28:11;2.47;;;1.70;;
12165;SDS011;6146;48.128;11.476;2023-07-31T11:30:38;2.60;;;1.90;;
12165;SDS011;6146;48.128;11.476;2023-07-31T11:33:05;4.20;;;1.95;;
12165;SDS011;6146;48.128;11.476;2023-07-31T11:35:32;3.13;;;2.00;;
12165;SDS011;6146;48.128;11.476;2023-07-31T11:37:59;1.90;;;1.70;;
12165;SDS011;6146;48.128;11.476;2023-07-31T11:40:25;2.15;;;1.70;;
12165;SDS011;6146;48.128;11.476;2023-07-31T11:42:57;2.75;;;1.67;;
12165;SDS011;6146;48.128;11.476;2023-07-31T11:45:24;2.38;;;1.88;;
12165;SDS011;6146;48.128;11.476;2023-07-31T11:47:54;2.30;;;1.92;;
12165;SDS011;6146;48.128;11.476;2023-07-31T11:50:20;2.95;;;1.95;;
12165;SDS011;6146;48.128;11.476;2023-07-31T11:52:49;1.75;;;1.63;;
12165;SDS011;6146;48.128;11.476;2023-07-31T11:55:21;2.10;;;1.73;;
12165;SDS011;6146;48.128;11.476;2023-07-31T11:57:47;1.95;;;1.75;;
12165;SDS011;6146;48.128;11.476;2023-07-31T12:00:13;2.20;;;1.70;;
12165;SDS011;6146;48.128;11.476;2023-07-31T12:02:39;2.15;;;1.58;;
12165;SDS011;6146;48.128;11.476;2023-07-31T12:05:06;2.22;;;1.55;;
12165;SDS011;6146;48.128;11.476;2023-07-31T12:07:43;3.35;;;1.80;;
12165;SDS011;6146;48.128;11.476;2023-07-31T12:10:29;2.92;;;1.95;;
12165;SDS011;6146;48.128;11.476;2023-07-31T12:12:56;2.47;;;1.88;;
12165;SDS011;6146;48.128;11.476;2023-07-31T12:15:31;3.47;;;1.80;;
12165;SDS011;6146;48.128;11.476;2023-07-31T12:17:58;1.88;;;1.73;;
12165;SDS011;6146;48.128;11.476;2023-07-31T12:20:23;2.67;;;1.83;;
12165;SDS011;6146;48.128;11.476;2023-07-31T12:22:49;2.93;;;1.90;;
12165;SDS011;6146;48.128;11.476;2023-07-31T12:25:15;2.53;;;1.97;;
12165;SDS011;6146;48.128;11.476;2023-07-31T12:27:44;2.40;;;1.90;;
12165;SDS011;6146;48.128;11.476;2023-07-31T12:33:14;3.10;;;1.90;;
12165;SDS011;6146;48.128;11.476;2023-07-31T12:35:42;3.00;;;1.93;;
12165;SDS011;6146;48.128;11.476;2023-07-31T12:38:10;3.10;;;1.80;;
12165;SDS011;6146;48.128;11.476;2023-07-31T12:40:37;2.47;;;1.80;;
12165;SDS011;6146;48.128;11.476;2023-07-31T12:43:04;2.97;;;1.90;;
12165;SDS011;6146;48.128;11.476;2023-07-31T12:45:30;3.13;;;2.13;;
12165;SDS011;6146;48.128;11.476;2023-07-31T12:47:56;3.10;;;1.90;;
12165;SDS011;6146;48.128;11.476;2023-07-31T12:50:23;2.30;;;2.10;;
12165;SDS011;6146;48.128;11.476;2023-07-31T12:52:49;2.28;;;1.92;;
12165;SDS011;6146;48.128;11.476;2023-07-31T12:55:14;2.33;;;1.77;;
12165;SDS011;6146;48.128;11.476;2023-07-31T12:57:40;2.43;;;1.83;;
12165;SDS011;6146;48.128;11.476;2023-07-31T13:00:07;4.67;;;2.00;;
12165;SDS011;6146;48.128;11.476;2023-07-31T13:02:33;2.27;;;2.00;;
12165;SDS011;6146;48.128;11.476;2023-07-31T13:04:58;4.00;;;2.10;;
12165;SDS011;6146;48.128;11.476;2023-07-31T13:07:24;2.05;;;1.83;;
12165;SDS011;6146;48.128;11.476;2023-07-31T13:09:50;2.10;;;1.60;;
12165;SDS011;6146;48.128;11.476;2023-07-31T13:12:16;3.15;;;2.00;;
12165;SDS011;6146;48.128;11.476;2023-07-31T13:14:41;2.53;;;1.70;;
12165;SDS011;6146;48.128;11.476;2023-07-31T13:17:07;2.97;;;1.60;;
12165;SDS011;6146;48.128;11.476;2023-07-31T13:19:32;1.88;;;1.65;;
12165;SDS011;6146;48.128;11.476;2023-07-31T13:21:58;2.60;;;1.73;;
12165;SDS011;6146;48.128;11.476;2023-07-31T13:24:23;2.57;;;1.97;;
12165;SDS011;6146;48.128;11.476;2023-07-31T13:26:49;1.70;;;1.60;;
12165;SDS011;6146;48.128;11.476;2023-07-31T13:29:14;2.93;;;1.87;;
12165;SDS011;6146;48.128;11.476;2023-07-31T13:31:40;1.70;;;1.60;;
12165;SDS011;6146;48.128;11.476;2023-07-31T13:34:06;1.93;;;1.57;;
12165;SDS011;6146;48.128;11.476;2023-07-31T13:36:31;2.50;;;1.70;;
12165;SDS011;6146;48.128;11.476;2023-07-31T13:38:58;3.77;;;2.17;;
12165;SDS011;6146;48.128;11.476;2023-07-31T13:41:24;4.73;;;1.90;;
12165;SDS011;6146;48.128;11.476;2023-07-31T13:43:50;3.10;;;1.83;;
12165;SDS011;6146;48.128;11.476;2023-07-31T13:46:15;3.13;;;1.60;;
12165;SDS011;6146;48.128;11.476;2023-07-31T13:48:41;3.50;;;2.00;;
12165;SDS011;6146;48.128;11.476;2023-07-31T13:51:06;2.10;;;1.63;;
12165;SDS011;6146;48.128;11.476;2023-07-31T13:53:32;2.60;;;1.70;;
12165;SDS011;6146;48.128;11.476;2023-07-31T13:55:57;3.23;;;1.60;;
12165;SDS011;6146;48.128;11.476;2023-07-31T13:58:23;3.53;;;1.80;;
12165;SDS011;6146;48.128;11.476;2023-07-31T14:00:49;1.97;;;1.77;;
12165;SDS011;6146;48.128;11.476;2023-07-31T14:03:14;2.00;;;1.70;;
12165;SDS011;6146;48.128;11.476;2023-07-31T14:05:40;1.83;;;1.50;;
12165;SDS011;6146;48.128;11.476;2023-07-31T14:08:05;2.40;;;1.77;;
12165;SDS011;6146;48.128;11.476;2023-07-31T14:10:31;2.87;;;1.80;;
12165;SDS011;6146;48.128;11.476;2023-07-31T14:12:56;2.27;;;1.90;;
12165;SDS011;6146;48.128;11.476;2023-07-31T14:15:22;3.10;;;2.20;;
12165;SDS011;6146;48.128;11.476;2023-07-31T14:17:47;3.60;;;2.53;;
12165;SDS011;6146;48.128;11.476;2023-07-31T14:20:13;2.63;;;2.03;;
12165;SDS011;6146;48.128;11.476;2023-07-31T14:22:39;3.00;;;1.80;;
12165;SDS011;6146;48.128;11.476;2023-07-31T14:25:04;3.80;;;1.87;;
12165;SDS011;6146;48.128;11.476;2023-07-31T14:27:30;3.00;;;1.90;;
12165;SDS011;6146;48.128;11.476;2023-07-31T14:29:56;3.20;;;2.00;;
12165;SDS011;6146;48.128;11.476;2023-07-31T14:32:22;2.67;;;1.83;;
12165;SDS011;6146;48.128;11.476;2023-07-31T14:34:50;3.00;;;1.80;;
12165;SDS011;6146;48.128;11.476;2023-07-31T14:37:16;3.07;;;2.00;;
12165;SDS011;6146;48.128;11.476;2023-07-31T14:39:41;3.33;;;2.10;;
12165;SDS011;6146;48.128;11.476;2023-07-31T14:42:08;2.27;;;1.90;;
12165;SDS011;6146;48.128;11.476;2023-07-31T14:44:34;2.20;;;2.00;;
12165;SDS011;6146;48.128;11.476;2023-07-31T14:46:59;2.00;;;1.70;;
12165;SDS011;6146;48.128;11.476;2023-07-31T14:49:25;3.87;;;1.93;;
12165;SDS011;6146;48.128;11.476;2023-07-31T14:51:52;3.40;;;2.00;;
12165;SDS011;6146;48.128;11.476;2023-07-31T14:54:18;3.00;;;2.00;;
12165;SDS011;6146;48.128;11.476;2023-07-31T14:56:43;4.27;;;2.33;;
12165;SDS011;6146;48.128;11.476;2023-07-31T14:59:09;3.43;;;2.47;;
12165;SDS011;6146;48.128;11.476;2023-07-31T15:01:35;3.50;;;2.47;;
12165;SDS011;6146;48.128;11.476;2023-07-31T15:04:00;2.87;;;2.30;;
12165;SDS011;6146;48.128;11.476;2023-07-31T15:06:26;3.43;;;2.20;;
12165;SDS011;6146;48.128;11.476;2023-07-31T15:08:52;3.33;;;2.30;;
12165;SDS011;6146;48.128;11.476;2023-07-31T15:11:18;2.83;;;2.10;;
12165;SDS011;6146;48.128;11.476;2023-07-31T15:13:43;3.17;;;2.17;;
12165;SDS011;6146;48.128;11.476;2023-07-31T15:16:09;5.27;;;2.27;;